Time;durP1;ratioP1;P1;durP2;ratioP2;P2;SDS_P1;SDS_P2;PMS_P1;PMS_P2;Temp;Humidity;BMP_temperature;BMP_pressure;BME280_temperature;BME280_humidity;BME280_pressure;Samples;Min_cycle;Max_cycle;Signal;HPM_P1;HPM_P2
2022/07/02 00:02:12;;;;;;;7.35;5.50;;;;;;;;;;5046122;28;20173;-73
2022/07/02 00:04:41;;;;;;;14.00;5.63;;;;;;;;;;5046126;28;20296;-74
2022/07/02 00:07:07;;;;;;;9.70;5.28;;;;;;;;;;5047473;28;20178;-74
2022/07/02 00:09:32;;;;;;;8.20;5.25;;;;;;;;;;5045882;28;20496;-74
2022/07/02 00:11:58;;;;;;;10.18;5.85;;;;;;;;;;5045926;28;20681;-74
2022/07/02 00:14:23;;;;;;;7.90;5.63;;;;;;;;;;5047794;28;20326;-75
2022/07/02 00:16:48;;;;;;;6.68;6.05;;;;;;;;;;5044139;28;20655;-74
2022/07/02 00:19:14;;;;;;;7.07;5.13;;;;;;;;;;5045659;28;20177;-74
2022/07/02 00:21:39;;;;;;;6.30;5.47;;;;;;;;;;5043057;28;20316;-74
2022/07/02 00:24:06;;;;;;;7.00;5.85;;;;;;;;;;5042382;28;20202;-73
2022/07/02 00:26:32;;;;;;;13.25;7.40;;;;;;;;;;5034221;28;20324;-73
2022/07/02 00:29:05;;;;;;;8.68;7.35;;;;;;;;;;5033741;28;20294;-73
2022/07/02 00:31:31;;;;;;;7.75;6.95;;;;;;;;;;5045459;28;20196;-75
2022/07/02 00:33:56;;;;;;;10.52;6.72;;;;;;;;;;5048249;28;20288;-75
2022/07/02 00:36:22;;;;;;;11.63;6.97;;;;;;;;;;5047462;28;20178;-75
2022/07/02 00:38:48;;;;;;;7.22;6.40;;;;;;;;;;5044885;28;20186;-74
2022/07/02 00:41:14;;;;;;;7.63;6.70;;;;;;;;;;5046814;28;20264;-74
2022/07/02 00:43:39;;;;;;;8.15;6.50;;;;;;;;;;5044733;28;20285;-74
2022/07/02 00:46:05;;;;;;;9.45;6.93;;;;;;;;;;5045352;28;20213;-74
2022/07/02 00:48:30;;;;;;;8.25;7.38;;;;;;;;;;5047532;28;20197;-73
2022/07/02 00:50:55;;;;;;;10.77;7.75;;;;;;;;;;5044058;28;20210;-73
2022/07/02 00:53:20;;;;;;;10.63;8.17;;;;;;;;;;5031420;28;20684;-73
2022/07/02 00:55:54;;;;;;;7.97;7.17;;;;;;;;;;5038833;28;20293;-73
2022/07/02 00:58:19;;;;;;;8.57;7.25;;;;;;;;;;5043899;28;20717;-73
2022/07/02 01:00:44;;;;;;;9.43;7.35;;;;;;;;;;5044716;28;20193;-73
2022/07/02 01:03:10;;;;;;;8.77;7.35;;;;;;;;;;5046793;28;20247;-73
2022/07/02 01:05:35;;;;;;;11.50;9.18;;;;;;;;;;5048869;28;20232;-73
2022/07/02 01:10:45;;;;;;;9.20;6.75;;;;;;;;;;5036146;28;20561;-73
2022/07/02 01:13:10;;;;;;;9.07;7.68;;;;;;;;;;5044720;28;20209;-73
2022/07/02 01:15:37;;;;;;;8.23;7.20;;;;;;;;;;5041725;28;20187;-73
2022/07/02 01:18:02;;;;;;;13.00;7.65;;;;;;;;;;5040474;28;20187;-73
2022/07/02 01:20:28;;;;;;;11.68;7.38;;;;;;;;;;5041882;28;20204;-74
2022/07/02 01:22:53;;;;;;;9.52;7.75;;;;;;;;;;5041788;28;20209;-74
2022/07/02 01:25:18;;;;;;;10.30;7.78;;;;;;;;;;5045419;28;20277;-74
2022/07/02 01:27:43;;;;;;;9.18;7.40;;;;;;;;;;5041215;28;20186;-74
2022/07/02 01:30:09;;;;;;;16.65;8.55;;;;;;;;;;5037618;28;20185;-74
2022/07/02 01:32:34;;;;;;;11.02;7.50;;;;;;;;;;5045293;28;20296;-74
2022/07/02 01:35:04;;;;;;;9.27;6.95;;;;;;;;;;5048850;28;20177;-74
2022/07/02 01:37:29;;;;;;;17.57;8.80;;;;;;;;;;5039221;28;20173;-73
2022/07/02 01:39:54;;;;;;;14.50;7.60;;;;;;;;;;5043195;28;20180;-74
2022/07/02 01:42:19;;;;;;;12.68;7.20;;;;;;;;;;5040859;28;20219;-74
2022/07/02 01:44:45;;;;;;;12.32;7.47;;;;;;;;;;5037641;28;20174;-73
2022/07/02 01:47:11;;;;;;;9.47;6.73;;;;;;;;;;5041765;28;20178;-74
2022/07/02 01:49:37;;;;;;;13.70;7.00;;;;;;;;;;5036883;28;20315;-74
2022/07/02 01:52:03;;;;;;;10.32;6.90;;;;;;;;;;5038995;28;20549;-73
2022/07/02 01:54:28;;;;;;;11.30;7.00;;;;;;;;;;5044759;28;20209;-73
2022/07/02 01:56:53;;;;;;;11.15;6.90;;;;;;;;;;5047491;28;20185;-74
2022/07/02 01:59:19;;;;;;;15.85;8.23;;;;;;;;;;5038198;28;22844;-76
2022/07/02 02:01:44;;;;;;;10.88;6.05;;;;;;;;;;5039991;28;20706;-74
2022/07/02 02:04:10;;;;;;;8.32;6.28;;;;;;;;;;5045753;28;21647;-73
2022/07/02 02:06:35;;;;;;;9.68;5.80;;;;;;;;;;5043572;28;20186;-74
2022/07/02 02:09:00;;;;;;;8.30;5.60;;;;;;;;;;5046968;28;20188;-74
2022/07/02 02:11:26;;;;;;;10.57;6.13;;;;;;;;;;5037542;28;20178;-75
2022/07/02 02:13:51;;;;;;;8.90;4.85;;;;;;;;;;5037619;28;20271;-74
2022/07/02 02:16:16;;;;;;;8.63;5.10;;;;;;;;;;5042539;28;20213;-74
2022/07/02 02:18:42;;;;;;;6.83;4.73;;;;;;;;;;5033572;28;20185;-74
2022/07/02 02:21:07;;;;;;;6.53;4.70;;;;;;;;;;5040395;28;20185;-74
2022/07/02 02:23:32;;;;;;;7.47;4.87;;;;;;;;;;5041172;28;20283;-74
2022/07/02 02:25:57;;;;;;;6.57;4.50;;;;;;;;;;5049469;28;20177;-75
2022/07/02 02:28:23;;;;;;;13.23;6.10;;;;;;;;;;5042596;28;20193;-74
2022/07/02 02:30:48;;;;;;;6.33;3.90;;;;;;;;;;5043393;28;20264;-74
2022/07/02 02:33:13;;;;;;;9.50;5.90;;;;;;;;;;5041799;28;20709;-74
2022/07/02 02:35:38;;;;;;;7.40;4.53;;;;;;;;;;5041686;28;20234;-74
2022/07/02 02:38:03;;;;;;;5.07;4.03;;;;;;;;;;5045764;28;20267;-74
2022/07/02 02:40:29;;;;;;;10.53;4.40;;;;;;;;;;5049481;28;20621;-75
2022/07/02 02:42:54;;;;;;;5.30;4.30;;;;;;;;;;5035459;28;20216;-74
2022/07/02 02:45:19;;;;;;;5.60;3.83;;;;;;;;;;5036648;28;20179;-73
2022/07/02 02:47:44;;;;;;;8.93;5.00;;;;;;;;;;5042203;28;20178;-75
2022/07/02 02:50:09;;;;;;;6.43;3.97;;;;;;;;;;5045555;28;20217;-73
2022/07/02 02:52:34;;;;;;;5.73;4.30;;;;;;;;;;5041673;28;20210;-76
2022/07/02 02:55:00;;;;;;;11.40;4.33;;;;;;;;;;5044898;28;20598;-76
2022/07/02 02:57:26;;;;;;;8.57;4.73;;;;;;;;;;5041438;28;20210;-75
2022/07/02 02:59:51;;;;;;;9.90;4.67;;;;;;;;;;5044607;28;20216;-75
2022/07/02 03:02:16;;;;;;;9.13;4.40;;;;;;;;;;5042579;28;20269;-75
2022/07/02 03:04:41;;;;;;;6.10;3.87;;;;;;;;;;5042544;28;20644;-75
2022/07/02 03:07:06;;;;;;;5.87;4.00;;;;;;;;;;5041225;28;20185;-73
2022/07/02 03:09:32;;;;;;;5.37;3.73;;;;;;;;;;5036973;28;20241;-75
2022/07/02 03:11:57;;;;;;;5.67;3.90;;;;;;;;;;5041497;28;20613;-73
2022/07/02 03:14:22;;;;;;;9.33;4.33;;;;;;;;;;5034791;28;20277;-76
2022/07/02 03:16:47;;;;;;;4.43;4.03;;;;;;;;;;5042441;28;20227;-75
2022/07/02 03:19:12;;;;;;;11.60;5.97;;;;;;;;;;5040501;28;20326;-73
2022/07/02 03:21:37;;;;;;;8.40;5.53;;;;;;;;;;5044440;28;20174;-75
2022/07/02 03:24:03;;;;;;;7.40;4.90;;;;;;;;;;5049393;28;20584;-75
2022/07/02 03:26:28;;;;;;;11.20;5.40;;;;;;;;;;5044348;28;20194;-75
2022/07/02 03:28:53;;;;;;;6.00;4.10;;;;;;;;;;5042711;28;20185;-75
2022/07/02 03:31:18;;;;;;;6.93;4.67;;;;;;;;;;5047970;28;20674;-73
2022/07/02 03:33:43;;;;;;;6.07;4.83;;;;;;;;;;5045292;28;20236;-74
2022/07/02 03:36:11;;;;;;;4.43;4.03;;;;;;;;;;5040929;28;20175;-74
2022/07/02 03:38:37;;;;;;;7.83;4.73;;;;;;;;;;5046510;28;20174;-74
2022/07/02 03:41:02;;;;;;;6.30;4.50;;;;;;;;;;5037269;28;20178;-75
2022/07/02 03:43:27;;;;;;;6.70;4.73;;;;;;;;;;5045611;28;20202;-73
2022/07/02 03:45:52;;;;;;;6.37;4.13;;;;;;;;;;5043716;28;20229;-76
2022/07/02 03:48:17;;;;;;;6.47;4.40;;;;;;;;;;5043295;28;20647;-73
2022/07/02 03:50:42;;;;;;;6.53;4.90;;;;;;;;;;5040670;28;20175;-75
2022/07/02 03:53:08;;;;;;;6.97;4.90;;;;;;;;;;5040377;28;20201;-75
2022/07/02 03:55:33;;;;;;;6.13;4.57;;;;;;;;;;5046571;28;20635;-75
2022/07/02 03:57:58;;;;;;;9.23;5.30;;;;;;;;;;5039373;28;20253;-75
2022/07/02 04:00:24;;;;;;;8.17;5.47;;;;;;;;;;5041471;28;20187;-75
2022/07/02 04:02:49;;;;;;;7.17;5.13;;;;;;;;;;5041980;28;20378;-75
2022/07/02 04:05:14;;;;;;;7.80;5.40;;;;;;;;;;5044257;28;20239;-75
2022/07/02 04:07:39;;;;;;;8.10;4.83;;;;;;;;;;5038087;28;20678;-74
2022/07/02 04:10:05;;;;;;;8.73;5.10;;;;;;;;;;5044078;28;20204;-75
2022/07/02 04:12:31;;;;;;;7.93;4.27;;;;;;;;;;5042784;28;20351;-75
2022/07/02 04:14:56;;;;;;;7.40;4.30;;;;;;;;;;5042969;28;20276;-75
2022/07/02 04:17:21;;;;;;;5.83;4.70;;;;;;;;;;5040849;28;20176;-73
2022/07/02 04:19:46;;;;;;;14.80;6.00;;;;;;;;;;5046438;28;20181;-73
2022/07/02 04:22:12;;;;;;;5.93;3.87;;;;;;;;;;5044185;28;20196;-73
2022/07/02 04:24:37;;;;;;;11.03;4.07;;;;;;;;;;5042177;28;20206;-73
2022/07/02 04:27:02;;;;;;;5.57;3.88;;;;;;;;;;5044734;28;20170;-73
2022/07/02 04:29:27;;;;;;;6.53;3.90;;;;;;;;;;5040421;28;20659;-73
2022/07/02 04:31:52;;;;;;;5.63;2.95;;;;;;;;;;5047900;28;20192;-73
2022/07/02 04:34:18;;;;;;;3.65;2.80;;;;;;;;;;5049199;28;20706;-73
2022/07/02 04:36:43;;;;;;;5.18;2.80;;;;;;;;;;5040659;28;20228;-73
2022/07/02 04:39:08;;;;;;;8.48;3.15;;;;;;;;;;5045691;28;20182;-75
2022/07/02 04:41:33;;;;;;;5.00;2.85;;;;;;;;;;5035589;28;20174;-74
2022/07/02 04:43:59;;;;;;;3.67;3.03;;;;;;;;;;5047367;28;20225;-74
2022/07/02 04:46:24;;;;;;;7.90;3.08;;;;;;;;;;5042466;28;20208;-74
2022/07/02 04:48:49;;;;;;;2.78;2.20;;;;;;;;;;5047841;28;20264;-73
2022/07/02 04:51:15;;;;;;;5.40;2.92;;;;;;;;;;5041149;28;20660;-73
2022/07/02 04:53:40;;;;;;;3.47;2.58;;;;;;;;;;5041888;28;20202;-73
2022/07/02 04:56:05;;;;;;;2.47;2.13;;;;;;;;;;5048105;28;20176;-73
2022/07/02 04:58:30;;;;;;;3.25;2.25;;;;;;;;;;5037282;28;20667;-73
2022/07/02 05:00:55;;;;;;;7.05;2.92;;;;;;;;;;5041337;28;20173;-75
2022/07/02 05:03:21;;;;;;;4.90;2.58;;;;;;;;;;5042999;28;20202;-75
2022/07/02 05:05:46;;;;;;;5.57;2.47;;;;;;;;;;5043268;28;20188;-75
2022/07/02 05:08:11;;;;;;;4.30;2.38;;;;;;;;;;5043006;28;20182;-74
2022/07/02 05:10:36;;;;;;;5.28;2.58;;;;;;;;;;5040468;28;20193;-73
2022/07/02 05:13:04;;;;;;;2.78;2.03;;;;;;;;;;5045942;28;20235;-73
2022/07/02 05:15:29;;;;;;;4.05;2.25;;;;;;;;;;5042265;28;20177;-73
2022/07/02 05:17:54;;;;;;;5.18;2.05;;;;;;;;;;5037443;28;20959;-73
2022/07/02 05:20:19;;;;;;;3.60;1.85;;;;;;;;;;5035701;28;20182;-73
2022/07/02 05:22:44;;;;;;;5.57;2.45;;;;;;;;;;5039818;28;20252;-74
2022/07/02 05:25:10;;;;;;;6.88;2.75;;;;;;;;;;5044444;28;20209;-74
2022/07/02 05:27:35;;;;;;;4.78;2.70;;;;;;;;;;5040128;28;20656;-74
2022/07/02 05:30:00;;;;;;;3.42;2.28;;;;;;;;;;5039513;28;20190;-74
2022/07/02 05:32:25;;;;;;;6.63;2.88;;;;;;;;;;5040847;28;20186;-73
2022/07/02 05:34:50;;;;;;;3.47;1.90;;;;;;;;;;5044310;28;20563;-73
2022/07/02 05:37:15;;;;;;;4.85;2.70;;;;;;;;;;5041248;28;20181;-73
2022/07/02 05:39:41;;;;;;;7.32;3.45;;;;;;;;;;5040993;28;20227;-73
2022/07/02 05:42:06;;;;;;;6.18;2.50;;;;;;;;;;5034053;28;20174;-73
2022/07/02 05:44:31;;;;;;;3.75;2.60;;;;;;;;;;5036412;28;20258;-74
2022/07/02 05:46:56;;;;;;;4.07;2.28;;;;;;;;;;5040255;28;20669;-74
2022/07/02 05:49:22;;;;;;;6.22;2.42;;;;;;;;;;5039328;28;20194;-74
2022/07/02 05:51:47;;;;;;;3.72;1.83;;;;;;;;;;5035223;28;20577;-75
2022/07/02 05:54:12;;;;;;;4.50;2.10;;;;;;;;;;5041912;28;20216;-75
2022/07/02 05:56:37;;;;;;;9.82;2.60;;;;;;;;;;5037755;28;20205;-72
2022/07/02 05:59:02;;;;;;;2.92;1.45;;;;;;;;;;5040727;28;20201;-73
2022/07/02 06:01:27;;;;;;;2.78;1.95;;;;;;;;;;5034191;28;20201;-73
2022/07/02 06:03:53;;;;;;;4.80;1.73;;;;;;;;;;5039610;28;20205;-73
2022/07/02 06:09:02;;;;;;;4.32;1.85;;;;;;;;;;5039431;28;20600;-73
2022/07/02 06:11:29;;;;;;;4.22;1.88;;;;;;;;;;5037743;28;20186;-73
2022/07/02 06:13:54;;;;;;;2.22;1.33;;;;;;;;;;5035206;28;20217;-73
2022/07/02 06:16:19;;;;;;;2.55;1.10;;;;;;;;;;5036243;28;20643;-73
2022/07/02 06:18:44;;;;;;;2.72;1.65;;;;;;;;;;5040709;28;20204;-73
2022/07/02 06:21:09;;;;;;;3.58;1.13;;;;;;;;;;5043021;28;20197;-73
2022/07/02 06:23:34;;;;;;;3.92;1.58;;;;;;;;;;5048001;28;20205;-73
2022/07/02 06:26:00;;;;;;;2.33;1.15;;;;;;;;;;5044409;28;20224;-73
2022/07/02 06:28:25;;;;;;;3.10;1.52;;;;;;;;;;5045212;28;20268;-73
2022/07/02 06:30:50;;;;;;;4.28;1.30;;;;;;;;;;5047359;28;20177;-73
2022/07/02 06:33:15;;;;;;;2.85;0.80;;;;;;;;;;5038213;28;20237;-73
2022/07/02 06:35:42;;;;;;;2.35;1.15;;;;;;;;;;5044540;28;20264;-73
2022/07/02 06:38:08;;;;;;;3.25;1.08;;;;;;;;;;5041517;28;20207;-73
2022/07/02 06:40:33;;;;;;;2.38;1.02;;;;;;;;;;5044362;28;20175;-73
2022/07/02 06:42:58;;;;;;;2.78;1.10;;;;;;;;;;5034366;28;20197;-73
2022/07/02 06:45:23;;;;;;;4.03;1.02;;;;;;;;;;5043479;28;20182;-74
2022/07/02 06:47:49;;;;;;;3.58;1.00;;;;;;;;;;5038317;28;20656;-73
2022/07/02 06:50:16;;;;;;;2.13;0.88;;;;;;;;;;5043951;28;20178;-73
2022/07/02 06:52:44;;;;;;;4.40;1.13;;;;;;;;;;5042327;28;20205;-75
2022/07/02 06:55:09;;;;;;;3.38;0.90;;;;;;;;;;5046136;28;20224;-73
2022/07/02 06:57:35;;;;;;;1.95;0.80;;;;;;;;;;5051785;28;20213;-73
2022/07/02 07:00:00;;;;;;;2.33;0.85;;;;;;;;;;5041731;28;20174;-73
2022/07/02 07:02:25;;;;;;;1.70;0.90;;;;;;;;;;5047646;28;20178;-73
2022/07/02 07:04:51;;;;;;;1.77;0.70;;;;;;;;;;5047224;28;20199;-73
2022/07/02 07:07:17;;;;;;;1.98;0.77;;;;;;;;;;5041748;28;20173;-73
2022/07/02 07:09:42;;;;;;;3.15;2.58;;;;;;;;;;5035275;28;20189;-73
2022/07/02 07:12:07;;;;;;;2.10;0.88;;;;;;;;;;5038653;28;20178;-73
2022/07/02 07:14:36;;;;;;;3.22;0.77;;;;;;;;;;5051368;28;20578;-73
2022/07/02 07:17:01;;;;;;;2.55;0.70;;;;;;;;;;5048377;28;20650;-73
2022/07/02 07:19:26;;;;;;;2.70;0.77;;;;;;;;;;5040894;28;20178;-73
2022/07/02 07:21:52;;;;;;;2.97;0.80;;;;;;;;;;5050008;28;20209;-73
2022/07/02 07:24:17;;;;;;;2.95;0.65;;;;;;;;;;5042307;28;20194;-73
2022/07/02 07:26:42;;;;;;;3.05;0.50;;;;;;;;;;5045388;28;20173;-73
2022/07/02 07:29:07;;;;;;;1.75;1.00;;;;;;;;;;5051418;28;20191;-73
2022/07/02 07:31:33;;;;;;;2.20;0.90;;;;;;;;;;5048781;28;20260;-73
2022/07/02 07:33:59;;;;;;;4.38;0.50;;;;;;;;;;5051968;28;20601;-73
2022/07/02 07:36:25;;;;;;;2.63;0.73;;;;;;;;;;5052876;28;20200;-74
2022/07/02 07:38:50;;;;;;;1.00;0.40;;;;;;;;;;5049162;28;20656;-73
2022/07/02 07:41:16;;;;;;;1.23;0.40;;;;;;;;;;5045149;28;20170;-73
2022/07/02 07:43:41;;;;;;;1.95;0.57;;;;;;;;;;5046205;28;20203;-74
2022/07/02 07:46:06;;;;;;;1.63;0.90;;;;;;;;;;5033693;28;20236;-73
2022/07/02 07:48:32;;;;;;;3.40;0.70;;;;;;;;;;5035060;28;20450;-74
2022/07/02 07:50:57;;;;;;;1.60;0.70;;;;;;;;;;5042661;28;20182;-74
2022/07/02 07:53:22;;;;;;;1.98;0.50;;;;;;;;;;5036264;28;20607;-73
2022/07/02 07:55:48;;;;;;;2.22;0.85;;;;;;;;;;5043861;28;20174;-73
2022/07/02 07:58:13;;;;;;;1.63;0.50;;;;;;;;;;5039686;28;20613;-73
2022/07/02 08:00:39;;;;;;;2.20;0.50;;;;;;;;;;5040901;28;20217;-73
2022/07/02 08:03:04;;;;;;;1.25;0.70;;;;;;;;;;5041102;28;20197;-73
2022/07/02 08:05:29;;;;;;;1.27;0.40;;;;;;;;;;5040713;28;20178;-74
2022/07/02 08:07:54;;;;;;;2.28;0.40;;;;;;;;;;5026872;28;20185;-73
2022/07/02 08:10:19;;;;;;;1.67;0.30;;;;;;;;;;5028414;28;20201;-73
2022/07/02 08:12:46;;;;;;;1.15;0.55;;;;;;;;;;5033128;28;20206;-73
2022/07/02 08:15:11;;;;;;;1.95;0.57;;;;;;;;;;5033872;28;20273;-72
2022/07/02 08:17:37;;;;;;;4.53;0.60;;;;;;;;;;5034624;28;20265;-72
2022/07/02 08:20:04;;;;;;;2.88;0.60;;;;;;;;;;5029627;28;20190;-73
2022/07/02 08:22:29;;;;;;;1.60;0.50;;;;;;;;;;5033149;28;20202;-73
2022/07/02 08:24:55;;;;;;;2.05;0.60;;;;;;;;;;5027739;28;20239;-73
2022/07/02 08:27:20;;;;;;;1.52;0.40;;;;;;;;;;5028513;28;20178;-74
2022/07/02 08:29:45;;;;;;;2.70;0.80;;;;;;;;;;5034866;28;20259;-73
2022/07/02 08:32:11;;;;;;;1.75;0.35;;;;;;;;;;5047886;28;20178;-73
2022/07/02 08:34:36;;;;;;;2.38;1.48;;;;;;;;;;5042953;28;20209;-73
2022/07/02 08:37:01;;;;;;;2.35;1.10;;;;;;;;;;5052588;28;20198;-73
2022/07/02 08:39:26;;;;;;;2.10;0.88;;;;;;;;;;5044223;28;20170;-73
2022/07/02 08:41:52;;;;;;;2.00;1.23;;;;;;;;;;5049154;28;20207;-73
2022/07/02 08:44:19;;;;;;;2.22;0.40;;;;;;;;;;5048321;28;20431;-73
2022/07/02 08:46:46;;;;;;;2.42;1.02;;;;;;;;;;5046598;28;20188;-73
2022/07/02 08:49:12;;;;;;;1.38;0.70;;;;;;;;;;5036726;28;20206;-72
2022/07/02 08:51:37;;;;;;;2.35;0.50;;;;;;;;;;5039216;28;20652;-72
2022/07/02 08:54:02;;;;;;;2.60;0.60;;;;;;;;;;5040412;28;20251;-72
2022/07/02 08:56:29;;;;;;;0.85;0.40;;;;;;;;;;5045939;28;20413;-72
2022/07/02 08:58:56;;;;;;;1.65;0.68;;;;;;;;;;5047091;28;20182;-72
2022/07/02 09:01:22;;;;;;;2.25;0.30;;;;;;;;;;5038698;28;20178;-72
2022/07/02 09:03:49;;;;;;;1.08;0.30;;;;;;;;;;5027204;28;20260;-73
2022/07/02 09:06:16;;;;;;;1.95;0.60;;;;;;;;;;5034971;28;20190;-73
2022/07/02 09:08:42;;;;;;;1.08;0.40;;;;;;;;;;5036520;28;20189;-73
2022/07/02 09:11:07;;;;;;;3.65;0.47;;;;;;;;;;5044106;28;20186;-73
2022/07/02 09:13:33;;;;;;;3.20;0.65;;;;;;;;;;5046429;28;20862;-73
2022/07/02 09:15:58;;;;;;;0.65;0.40;;;;;;;;;;5040925;28;20191;-73
2022/07/02 09:18:23;;;;;;;2.73;1.07;;;;;;;;;;5032576;28;20181;-73
2022/07/02 09:20:49;;;;;;;2.30;0.60;;;;;;;;;;5037435;28;20469;-73
2022/07/02 09:23:20;;;;;;;1.00;0.30;;;;;;;;;;5027174;28;20233;-72
2022/07/02 09:25:45;;;;;;;3.08;0.38;;;;;;;;;;5032401;28;20236;-73
2022/07/02 09:28:13;;;;;;;3.97;0.43;;;;;;;;;;5030124;28;20602;-73
2022/07/02 09:30:38;;;;;;;1.10;0.50;;;;;;;;;;5028409;28;20300;-72
2022/07/02 09:35:47;;;;;;;3.30;0.85;;;;;;;;;;5031045;28;20627;-73
2022/07/02 09:38:12;;;;;;;2.28;0.52;;;;;;;;;;5027988;28;20253;-72
2022/07/02 09:40:38;;;;;;;0.50;0.32;;;;;;;;;;5029728;28;20170;-72
2022/07/02 09:43:03;;;;;;;2.28;0.45;;;;;;;;;;5032306;28;20197;-73
2022/07/02 09:45:28;;;;;;;3.00;1.05;;;;;;;;;;5043037;28;20185;-74
2022/07/02 09:47:54;;;;;;;1.17;0.40;;;;;;;;;;5038567;28;20190;-76
2022/07/02 09:50:20;;;;;;;3.13;0.57;;;;;;;;;;5038522;28;20614;-75
2022/07/02 09:52:49;;;;;;;2.25;0.57;;;;;;;;;;5042514;28;20284;-75
2022/07/02 09:55:18;;;;;;;1.80;0.65;;;;;;;;;;5037292;28;20182;-75
2022/07/02 09:57:53;;;;;;;1.85;0.70;;;;;;;;;;5034055;28;20174;-76
2022/07/02 10:00:19;;;;;;;2.13;0.80;;;;;;;;;;5046960;28;20230;-75
2022/07/02 10:02:44;;;;;;;2.30;0.70;;;;;;;;;;5043888;28;20610;-75
2022/07/02 10:05:09;;;;;;;2.22;0.55;;;;;;;;;;5045938;28;20600;-75
2022/07/02 10:07:35;;;;;;;2.10;0.70;;;;;;;;;;5038226;28;20191;-75
2022/07/02 10:10:04;;;;;;;3.05;0.50;;;;;;;;;;5045039;28;20422;-75
2022/07/02 10:12:29;;;;;;;1.67;0.30;;;;;;;;;;5047203;28;20213;-76
2022/07/02 10:14:56;;;;;;;1.98;0.80;;;;;;;;;;5035737;28;20178;-76
2022/07/02 10:17:23;;;;;;;1.95;0.45;;;;;;;;;;5039463;28;20256;-75
2022/07/02 10:19:48;;;;;;;2.20;0.43;;;;;;;;;;5041509;28;20610;-75
2022/07/02 10:22:14;;;;;;;1.50;0.60;;;;;;;;;;5036593;28;20272;-75
2022/07/02 10:24:40;;;;;;;4.18;0.70;;;;;;;;;;5037036;28;20178;-75
2022/07/02 10:27:05;;;;;;;2.80;0.68;;;;;;;;;;5037957;28;20927;-75
2022/07/02 10:29:30;;;;;;;1.75;0.57;;;;;;;;;;5044066;28;20178;-75
2022/07/02 10:32:03;;;;;;;0.90;0.50;;;;;;;;;;5046208;28;20217;-74
2022/07/02 10:34:31;;;;;;;2.58;1.00;;;;;;;;;;5044530;28;20462;-75
2022/07/02 10:36:58;;;;;;;1.90;0.80;;;;;;;;;;5047942;28;20177;-75
2022/07/02 10:39:24;;;;;;;2.17;0.80;;;;;;;;;;5039542;28;20175;-75
2022/07/02 10:41:49;;;;;;;1.23;0.68;;;;;;;;;;5042896;28;20269;-75
2022/07/02 10:44:15;;;;;;;1.67;0.80;;;;;;;;;;5041617;28;20718;-75
2022/07/02 10:46:46;;;;;;;2.67;0.80;;;;;;;;;;5044965;28;20216;-75
2022/07/02 10:49:11;;;;;;;4.30;0.93;;;;;;;;;;5040248;28;20184;-76
2022/07/02 10:51:36;;;;;;;1.67;0.73;;;;;;;;;;5041498;28;20257;-75
2022/07/02 10:54:02;;;;;;;1.60;0.63;;;;;;;;;;5050051;28;20497;-76
2022/07/02 10:56:28;;;;;;;1.65;0.82;;;;;;;;;;5042475;28;20189;-74
2022/07/02 10:58:53;;;;;;;4.00;1.02;;;;;;;;;;5043950;28;20171;-76
2022/07/02 11:01:21;;;;;;;2.07;0.80;;;;;;;;;;5030031;28;20186;-75
2022/07/02 11:03:52;;;;;;;1.52;0.60;;;;;;;;;;5031821;28;20282;-76
2022/07/02 11:06:20;;;;;;;2.92;0.68;;;;;;;;;;5032209;28;20177;-76
2022/07/02 11:08:46;;;;;;;2.65;0.77;;;;;;;;;;5034979;28;20205;-76
2022/07/02 11:11:30;;;;;;;3.38;0.73;;;;;;;;;;5032496;28;20766;-76
2022/07/02 11:13:59;;;;;;;3.80;0.77;;;;;;;;;;5033988;28;20266;-76
2022/07/02 11:16:44;;;;;;;2.28;0.77;;;;;;;;;;5030529;28;20182;-75
2022/07/02 11:19:20;;;;;;;2.13;0.77;;;;;;;;;;5032545;28;20211;-75
2022/07/02 11:21:49;;;;;;;1.73;0.85;;;;;;;;;;5034179;28;20316;-76
2022/07/02 11:24:15;;;;;;;1.92;0.60;;;;;;;;;;5036041;28;20610;-76
2022/07/02 11:26:41;;;;;;;2.70;0.70;;;;;;;;;;5030568;28;20249;-76
2022/07/02 11:29:07;;;;;;;2.38;0.80;;;;;;;;;;5028904;28;20289;-76
2022/07/02 11:31:35;;;;;;;3.33;0.90;;;;;;;;;;5030776;28;20182;-76
2022/07/02 11:34:00;;;;;;;2.35;0.50;;;;;;;;;;5029867;28;20647;-76
2022/07/02 11:36:26;;;;;;;1.83;0.60;;;;;;;;;;5029354;28;20323;-75
2022/07/02 11:38:51;;;;;;;2.05;0.60;;;;;;;;;;5029113;28;20419;-75
2022/07/02 11:41:22;;;;;;;4.43;0.75;;;;;;;;;;5028905;28;20190;-76
2022/07/02 11:43:49;;;;;;;2.17;0.70;;;;;;;;;;5031456;28;20203;-75
2022/07/02 11:46:17;;;;;;;3.17;0.80;;;;;;;;;;5030819;28;20193;-76
2022/07/02 11:48:42;;;;;;;3.15;0.63;;;;;;;;;;5031498;28;20209;-75
2022/07/02 11:51:07;;;;;;;2.33;0.60;;;;;;;;;;5034049;28;20273;-76
2022/07/02 11:53:32;;;;;;;1.33;0.70;;;;;;;;;;5031013;28;20471;-75
2022/07/02 11:56:08;;;;;;;2.15;0.47;;;;;;;;;;5032404;28;20265;-75
2022/07/02 11:58:43;;;;;;;4.70;1.00;;;;;;;;;;5029343;28;20730;-76
2022/07/02 12:01:22;;;;;;;3.10;1.02;;;;;;;;;;5030625;28;20182;-75
2022/07/02 12:03:48;;;;;;;1.63;0.68;;;;;;;;;;5032006;28;20231;-75
2022/07/02 12:06:13;;;;;;;1.45;0.80;;;;;;;;;;5026678;28;20618;-75
2022/07/02 12:08:39;;;;;;;2.55;0.45;;;;;;;;;;5027774;28;20198;-75
2022/07/02 12:11:18;;;;;;;2.13;0.63;;;;;;;;;;5034796;28;20193;-75
2022/07/02 12:13:43;;;;;;;2.60;0.73;;;;;;;;;;5031986;28;20210;-75
2022/07/02 12:16:12;;;;;;;1.33;0.57;;;;;;;;;;5035846;28;20556;-75
2022/07/02 12:18:38;;;;;;;1.98;0.93;;;;;;;;;;5034038;28;20177;-76
2022/07/02 12:21:14;;;;;;;2.20;0.52;;;;;;;;;;5036960;28;20190;-75
2022/07/02 12:23:43;;;;;;;1.35;0.55;;;;;;;;;;5033240;28;20239;-75
2022/07/02 12:26:08;;;;;;;2.80;0.50;;;;;;;;;;5031338;28;20184;-75
2022/07/02 12:31:17;;;;;;;1.90;0.70;;;;;;;;;;5036161;28;20526;-74
2022/07/02 12:33:42;;;;;;;2.63;0.70;;;;;;;;;;5039460;28;20232;-75
2022/07/02 12:36:07;;;;;;;2.30;0.57;;;;;;;;;;5043422;28;21156;-75
2022/07/02 12:38:42;;;;;;;1.90;0.70;;;;;;;;;;5039237;28;20421;-74
2022/07/02 12:41:07;;;;;;;1.48;0.47;;;;;;;;;;5042128;28;20897;-75
2022/07/02 12:43:33;;;;;;;1.35;0.50;;;;;;;;;;5038805;28;20194;-75
2022/07/02 12:46:05;;;;;;;3.23;0.60;;;;;;;;;;5041610;28;20213;-74
2022/07/02 12:48:30;;;;;;;1.58;0.60;;;;;;;;;;5038333;28;20435;-75
2022/07/02 12:50:55;;;;;;;0.90;0.50;;;;;;;;;;5035742;28;20213;-75
2022/07/02 12:53:21;;;;;;;1.20;1.00;;;;;;;;;;5039283;28;20580;-74
2022/07/02 12:55:58;;;;;;;1.55;0.60;;;;;;;;;;5034382;28;20430;-75
2022/07/02 12:58:24;;;;;;;1.48;0.63;;;;;;;;;;5038284;28;20170;-75
2022/07/02 13:00:49;;;;;;;3.00;0.57;;;;;;;;;;5036019;28;20582;-75
2022/07/02 13:03:15;;;;;;;1.35;0.52;;;;;;;;;;5028404;28;20189;-75
2022/07/02 13:05:41;;;;;;;2.28;0.85;;;;;;;;;;5029371;28;20178;-75
2022/07/02 13:08:07;;;;;;;3.58;0.70;;;;;;;;;;5034617;28;20728;-75
2022/07/02 13:10:32;;;;;;;1.27;0.50;;;;;;;;;;5029888;28;20182;-75
2022/07/02 13:12:58;;;;;;;4.32;0.60;;;;;;;;;;5027850;28;20213;-75
2022/07/02 13:15:23;;;;;;;1.48;0.40;;;;;;;;;;5031206;28;21139;-76
2022/07/02 13:17:48;;;;;;;1.10;0.50;;;;;;;;;;5025754;28;20217;-75
2022/07/02 13:20:14;;;;;;;2.17;0.50;;;;;;;;;;5030929;28;20667;-75
2022/07/02 13:22:39;;;;;;;2.38;0.82;;;;;;;;;;5032192;28;20434;-75
2022/07/02 13:25:05;;;;;;;1.98;0.70;;;;;;;;;;5030624;28;20182;-75
2022/07/02 13:27:30;;;;;;;2.20;0.70;;;;;;;;;;5036404;28;20551;-75
2022/07/02 13:29:57;;;;;;;1.07;0.47;;;;;;;;;;5032681;28;20178;-75
2022/07/02 13:32:22;;;;;;;8.13;1.33;;;;;;;;;;5027613;28;20939;-75
2022/07/02 13:34:47;;;;;;;3.33;0.70;;;;;;;;;;5031788;28;20292;-75
2022/07/02 13:37:13;;;;;;;2.60;0.70;;;;;;;;;;5029674;28;20431;-75
2022/07/02 13:39:39;;;;;;;1.30;0.57;;;;;;;;;;5030598;28;20435;-75
2022/07/02 13:42:04;;;;;;;1.73;0.45;;;;;;;;;;5029305;28;20178;-75
2022/07/02 13:44:31;;;;;;;2.75;0.80;;;;;;;;;;5031165;28;20237;-75
2022/07/02 13:46:56;;;;;;;0.90;0.57;;;;;;;;;;5027763;28;20604;-76
2022/07/02 13:49:21;;;;;;;2.47;1.00;;;;;;;;;;5027287;28;20178;-75
2022/07/02 13:51:47;;;;;;;2.50;1.13;;;;;;;;;;5027104;28;20169;-76
2022/07/02 13:54:12;;;;;;;1.75;0.82;;;;;;;;;;5025175;28;20206;-76
2022/07/02 13:56:37;;;;;;;2.80;0.80;;;;;;;;;;5030849;28;20178;-75
2022/07/02 13:59:04;;;;;;;2.73;0.70;;;;;;;;;;5027284;28;20174;-75
2022/07/02 14:01:29;;;;;;;1.90;1.23;;;;;;;;;;5031725;28;20423;-76
2022/07/02 14:03:54;;;;;;;2.42;0.88;;;;;;;;;;5028614;28;20671;-76
2022/07/02 14:06:20;;;;;;;1.90;0.83;;;;;;;;;;5029696;28;20204;-76
2022/07/02 14:08:45;;;;;;;1.13;0.60;;;;;;;;;;5024868;28;20933;-75
2022/07/02 14:11:11;;;;;;;1.13;0.67;;;;;;;;;;5030193;28;20305;-75
2022/07/02 14:13:36;;;;;;;1.40;0.68;;;;;;;;;;5028895;28;20462;-75
2022/07/02 14:16:03;;;;;;;1.30;0.80;;;;;;;;;;5029770;28;20240;-75
2022/07/02 14:18:28;;;;;;;1.70;0.70;;;;;;;;;;5029577;28;20638;-75
2022/07/02 14:20:53;;;;;;;1.63;0.60;;;;;;;;;;5027047;28;20177;-75
2022/07/02 14:23:19;;;;;;;0.97;0.53;;;;;;;;;;5030682;28;20903;-75
2022/07/02 14:25:44;;;;;;;2.40;0.70;;;;;;;;;;5031627;28;20870;-75
2022/07/02 14:28:10;;;;;;;2.03;0.77;;;;;;;;;;5027319;28;20420;-72
2022/07/02 14:30:35;;;;;;;2.50;0.77;;;;;;;;;;5035565;28;21238;-73
2022/07/02 14:33:00;;;;;;;2.55;1.00;;;;;;;;;;5047176;28;20212;-73
2022/07/02 14:35:25;;;;;;;2.33;0.55;;;;;;;;;;5043557;28;20220;-73
2022/07/02 14:37:51;;;;;;;4.70;0.70;;;;;;;;;;5044846;28;20231;-73
2022/07/02 14:40:16;;;;;;;1.57;0.60;;;;;;;;;;5047272;28;20426;-73
2022/07/02 14:42:41;;;;;;;2.27;0.50;;;;;;;;;;5040519;28;20534;-73
2022/07/02 14:45:07;;;;;;;2.08;0.80;;;;;;;;;;5042108;28;20947;-73